sensor_id;sensor_type;location;lat;lon;timestamp;P1;durP1;ratioP1;P2;durP2;ratioP2
19891;SDS011;10108;50.142;8.724;2023-04-06T00:02:18;20.40;;;11.35;;
19891;SDS011;10108;50.142;8.724;2023-04-06T00:04:44;18.20;;;9.80;;
19891;SDS011;10108;50.142;8.724;2023-04-06T00:07:11;17.13;;;10.50;;
19891;SDS011;10108;50.142;8.724;2023-04-06T00:09:37;14.88;;;10.07;;
19891;SDS011;10108;50.142;8.724;2023-04-06T00:12:03;15.43;;;9.65;;
19891;SDS011;10108;50.142;8.724;2023-04-06T00:14:30;18.02;;;10.13;;
19891;SDS011;10108;50.142;8.724;2023-04-06T00:16:56;16.95;;;10.27;;
19891;SDS011;10108;50.142;8.724;2023-04-06T00:19:22;16.33;;;10.23;;
19891;SDS011;10108;50.142;8.724;2023-04-06T00:21:49;14.40;;;9.77;;
19891;SDS011;10108;50.142;8.724;2023-04-06T00:24:15;18.42;;;10.45;;
19891;SDS011;10108;50.142;8.724;2023-04-06T00:26:41;16.30;;;10.27;;
19891;SDS011;10108;50.142;8.724;2023-04-06T00:29:07;16.38;;;9.30;;
19891;SDS011;10108;50.142;8.724;2023-04-06T00:31:33;16.40;;;10.00;;
19891;SDS011;10108;50.142;8.724;2023-04-06T00:34:00;16.10;;;10.30;;
19891;SDS011;10108;50.142;8.724;2023-04-06T00:36:26;16.95;;;10.38;;
19891;SDS011;10108;50.142;8.724;2023-04-06T00:38:52;16.98;;;9.98;;
19891;SDS011;10108;50.142;8.724;2023-04-06T00:41:18;16.13;;;10.48;;
19891;SDS011;10108;50.142;8.724;2023-04-06T00:43:46;18.05;;;10.23;;
19891;SDS011;10108;50.142;8.724;2023-04-06T00:46:12;16.67;;;10.45;;
19891;SDS011;10108;50.142;8.724;2023-04-06T00:48:38;15.80;;;10.15;;
19891;SDS011;10108;50.142;8.724;2023-04-06T00:51:06;16.45;;;10.25;;
19891;SDS011;10108;50.142;8.724;2023-04-06T00:53:32;20.30;;;10.48;;
19891;SDS011;10108;50.142;8.724;2023-04-06T00:56:00;15.80;;;10.45;;
19891;SDS011;10108;50.142;8.724;2023-04-06T00:58:27;17.80;;;10.73;;
19891;SDS011;10108;50.142;8.724;2023-04-06T01:01:02;15.55;;;10.13;;
19891;SDS011;10108;50.142;8.724;2023-04-06T01:03:28;17.33;;;10.18;;
19891;SDS011;10108;50.142;8.724;2023-04-06T01:05:54;18.27;;;10.60;;
19891;SDS011;10108;50.142;8.724;2023-04-06T01:08:27;15.25;;;10.15;;
19891;SDS011;10108;50.142;8.724;2023-04-06T01:11:07;15.82;;;10.50;;
19891;SDS011;10108;50.142;8.724;2023-04-06T01:13:33;18.60;;;10.68;;
19891;SDS011;10108;50.142;8.724;2023-04-06T01:16:03;15.30;;;10.45;;
19891;SDS011;10108;50.142;8.724;2023-04-06T01:18:47;16.60;;;10.30;;
19891;SDS011;10108;50.142;8.724;2023-04-06T01:21:17;16.85;;;9.85;;
19891;SDS011;10108;50.142;8.724;2023-04-06T01:24:07;18.25;;;10.75;;
19891;SDS011;10108;50.142;8.724;2023-04-06T01:26:49;17.40;;;10.25;;
19891;SDS011;10108;50.142;8.724;2023-04-06T01:29:15;15.95;;;10.02;;
19891;SDS011;10108;50.142;8.724;2023-04-06T01:31:42;15.52;;;10.90;;
19891;SDS011;10108;50.142;8.724;2023-04-06T01:34:08;16.33;;;10.55;;
19891;SDS011;10108;50.142;8.724;2023-04-06T01:36:35;17.70;;;10.30;;
19891;SDS011;10108;50.142;8.724;2023-04-06T01:39:16;15.68;;;9.95;;
19891;SDS011;10108;50.142;8.724;2023-04-06T01:41:42;13.98;;;9.52;;
19891;SDS011;10108;50.142;8.724;2023-04-06T01:44:08;14.88;;;9.75;;
19891;SDS011;10108;50.142;8.724;2023-04-06T01:46:35;15.85;;;9.88;;
19891;SDS011;10108;50.142;8.724;2023-04-06T01:49:03;17.27;;;9.75;;
19891;SDS011;10108;50.142;8.724;2023-04-06T01:51:36;17.40;;;9.90;;
19891;SDS011;10108;50.142;8.724;2023-04-06T01:54:05;17.35;;;10.63;;
19891;SDS011;10108;50.142;8.724;2023-04-06T01:56:49;15.70;;;9.90;;
19891;SDS011;10108;50.142;8.724;2023-04-06T01:59:29;15.10;;;10.05;;
19891;SDS011;10108;50.142;8.724;2023-04-06T02:01:56;16.48;;;10.25;;
19891;SDS011;10108;50.142;8.724;2023-04-06T02:04:24;14.68;;;10.30;;
19891;SDS011;10108;50.142;8.724;2023-04-06T02:06:57;16.98;;;10.18;;
19891;SDS011;10108;50.142;8.724;2023-04-06T02:09:26;16.80;;;9.88;;
19891;SDS011;10108;50.142;8.724;2023-04-06T02:11:52;15.13;;;9.68;;
19891;SDS011;10108;50.142;8.724;2023-04-06T02:14:19;16.88;;;9.88;;
19891;SDS011;10108;50.142;8.724;2023-04-06T02:16:50;17.55;;;10.02;;
19891;SDS011;10108;50.142;8.724;2023-04-06T02:19:16;15.05;;;9.90;;
19891;SDS011;10108;50.142;8.724;2023-04-06T02:21:42;18.75;;;10.45;;
19891;SDS011;10108;50.142;8.724;2023-04-06T02:24:09;17.20;;;10.40;;
19891;SDS011;10108;50.142;8.724;2023-04-06T02:26:35;15.32;;;10.07;;
19891;SDS011;10108;50.142;8.724;2023-04-06T02:29:01;15.93;;;9.98;;
19891;SDS011;10108;50.142;8.724;2023-04-06T02:31:28;18.60;;;10.20;;
19891;SDS011;10108;50.142;8.724;2023-04-06T02:33:54;15.13;;;10.02;;
19891;SDS011;10108;50.142;8.724;2023-04-06T02:36:20;16.33;;;9.98;;
19891;SDS011;10108;50.142;8.724;2023-04-06T02:38:46;16.27;;;9.73;;
19891;SDS011;10108;50.142;8.724;2023-04-06T02:41:13;16.13;;;9.95;;
19891;SDS011;10108;50.142;8.724;2023-04-06T02:43:39;15.80;;;10.25;;
19891;SDS011;10108;50.142;8.724;2023-04-06T02:46:16;16.42;;;9.65;;
19891;SDS011;10108;50.142;8.724;2023-04-06T02:48:42;15.43;;;10.05;;
19891;SDS011;10108;50.142;8.724;2023-04-06T02:51:08;16.90;;;10.45;;
19891;SDS011;10108;50.142;8.724;2023-04-06T02:53:35;13.70;;;9.85;;
19891;SDS011;10108;50.142;8.724;2023-04-06T02:56:02;16.80;;;10.57;;
19891;SDS011;10108;50.142;8.724;2023-04-06T02:58:39;16.85;;;10.15;;
19891;SDS011;10108;50.142;8.724;2023-04-06T03:01:06;15.60;;;9.75;;
19891;SDS011;10108;50.142;8.724;2023-04-06T03:03:32;14.85;;;10.10;;
19891;SDS011;10108;50.142;8.724;2023-04-06T03:05:59;20.05;;;9.80;;
19891;SDS011;10108;50.142;8.724;2023-04-06T03:08:29;16.77;;;9.98;;
19891;SDS011;10108;50.142;8.724;2023-04-06T03:10:55;14.73;;;10.05;;
19891;SDS011;10108;50.142;8.724;2023-04-06T03:13:28;13.93;;;9.70;;
19891;SDS011;10108;50.142;8.724;2023-04-06T03:15:56;17.70;;;10.32;;
19891;SDS011;10108;50.142;8.724;2023-04-06T03:18:23;15.95;;;10.18;;
19891;SDS011;10108;50.142;8.724;2023-04-06T03:20:52;15.55;;;10.18;;
19891;SDS011;10108;50.142;8.724;2023-04-06T03:23:25;17.38;;;9.68;;
19891;SDS011;10108;50.142;8.724;2023-04-06T03:25:56;14.50;;;10.13;;
19891;SDS011;10108;50.142;8.724;2023-04-06T03:28:22;15.02;;;10.25;;
19891;SDS011;10108;50.142;8.724;2023-04-06T03:30:53;13.98;;;9.80;;
19891;SDS011;10108;50.142;8.724;2023-04-06T03:33:35;18.08;;;10.32;;
19891;SDS011;10108;50.142;8.724;2023-04-06T03:36:01;17.50;;;10.68;;
19891;SDS011;10108;50.142;8.724;2023-04-06T03:38:30;16.35;;;9.70;;
19891;SDS011;10108;50.142;8.724;2023-04-06T03:40:56;15.73;;;10.32;;
19891;SDS011;10108;50.142;8.724;2023-04-06T03:43:25;15.48;;;10.35;;
19891;SDS011;10108;50.142;8.724;2023-04-06T03:45:52;15.75;;;10.32;;
19891;SDS011;10108;50.142;8.724;2023-04-06T03:48:18;16.02;;;10.40;;
19891;SDS011;10108;50.142;8.724;2023-04-06T03:50:44;16.73;;;10.27;;
19891;SDS011;10108;50.142;8.724;2023-04-06T03:53:11;16.08;;;10.30;;
19891;SDS011;10108;50.142;8.724;2023-04-06T03:55:37;15.25;;;10.60;;
19891;SDS011;10108;50.142;8.724;2023-04-06T03:58:03;14.82;;;10.23;;
19891;SDS011;10108;50.142;8.724;2023-04-06T04:00:30;20.08;;;10.23;;
19891;SDS011;10108;50.142;8.724;2023-04-06T04:02:58;17.23;;;10.80;;
19891;SDS011;10108;50.142;8.724;2023-04-06T04:05:26;17.08;;;10.85;;
19891;SDS011;10108;50.142;8.724;2023-04-06T04:07:52;16.10;;;10.23;;
19891;SDS011;10108;50.142;8.724;2023-04-06T04:10:22;16.60;;;10.63;;
19891;SDS011;10108;50.142;8.724;2023-04-06T04:12:48;16.50;;;10.55;;
19891;SDS011;10108;50.142;8.724;2023-04-06T04:15:17;16.33;;;10.30;;
19891;SDS011;10108;50.142;8.724;2023-04-06T04:17:44;16.55;;;10.60;;
19891;SDS011;10108;50.142;8.724;2023-04-06T04:20:12;16.08;;;10.57;;
19891;SDS011;10108;50.142;8.724;2023-04-06T04:22:39;17.20;;;10.45;;
19891;SDS011;10108;50.142;8.724;2023-04-06T04:25:06;18.27;;;10.65;;
19891;SDS011;10108;50.142;8.724;2023-04-06T04:27:37;15.90;;;10.75;;
19891;SDS011;10108;50.142;8.724;2023-04-06T04:30:03;16.85;;;10.57;;
19891;SDS011;10108;50.142;8.724;2023-04-06T04:32:31;17.75;;;11.02;;
19891;SDS011;10108;50.142;8.724;2023-04-06T04:34:59;16.25;;;10.23;;
19891;SDS011;10108;50.142;8.724;2023-04-06T04:37:34;16.13;;;10.55;;
19891;SDS011;10108;50.142;8.724;2023-04-06T04:40:01;17.20;;;11.00;;
19891;SDS011;10108;50.142;8.724;2023-04-06T04:42:31;17.48;;;10.55;;
19891;SDS011;10108;50.142;8.724;2023-04-06T04:44:59;15.25;;;11.00;;
19891;SDS011;10108;50.142;8.724;2023-04-06T04:47:36;15.00;;;10.25;;
19891;SDS011;10108;50.142;8.724;2023-04-06T04:50:03;17.73;;;10.95;;
19891;SDS011;10108;50.142;8.724;2023-04-06T04:52:30;16.38;;;10.77;;
19891;SDS011;10108;50.142;8.724;2023-04-06T04:55:07;17.88;;;10.88;;
19891;SDS011;10108;50.142;8.724;2023-04-06T04:57:34;20.17;;;11.65;;
19891;SDS011;10108;50.142;8.724;2023-04-06T05:00:00;17.42;;;10.95;;
19891;SDS011;10108;50.142;8.724;2023-04-06T05:02:28;17.42;;;10.73;;
19891;SDS011;10108;50.142;8.724;2023-04-06T05:05:27;17.40;;;10.98;;
19891;SDS011;10108;50.142;8.724;2023-04-06T05:07:54;16.50;;;10.60;;
19891;SDS011;10108;50.142;8.724;2023-04-06T05:10:30;15.68;;;10.57;;
19891;SDS011;10108;50.142;8.724;2023-04-06T05:12:59;15.82;;;10.75;;
19891;SDS011;10108;50.142;8.724;2023-04-06T05:15:26;15.85;;;10.93;;
19891;SDS011;10108;50.142;8.724;2023-04-06T05:17:57;16.67;;;11.15;;
19891;SDS011;10108;50.142;8.724;2023-04-06T05:20:30;17.02;;;11.23;;
19891;SDS011;10108;50.142;8.724;2023-04-06T05:22:57;16.40;;;11.38;;
19891;SDS011;10108;50.142;8.724;2023-04-06T05:25:23;18.73;;;10.65;;
19891;SDS011;10108;50.142;8.724;2023-04-06T05:27:53;18.25;;;10.80;;
19891;SDS011;10108;50.142;8.724;2023-04-06T05:30:44;21.02;;;10.50;;
19891;SDS011;10108;50.142;8.724;2023-04-06T05:33:36;16.90;;;11.13;;
19891;SDS011;10108;50.142;8.724;2023-04-06T05:36:32;14.75;;;10.73;;
19891;SDS011;10108;50.142;8.724;2023-04-06T05:39:23;16.98;;;11.20;;
19891;SDS011;10108;50.142;8.724;2023-04-06T05:42:14;18.15;;;11.32;;
19891;SDS011;10108;50.142;8.724;2023-04-06T05:45:06;20.60;;;11.23;;
19891;SDS011;10108;50.142;8.724;2023-04-06T05:47:58;18.33;;;11.00;;
19891;SDS011;10108;50.142;8.724;2023-04-06T05:50:28;16.33;;;10.85;;
19891;SDS011;10108;50.142;8.724;2023-04-06T05:52:56;16.25;;;10.93;;
19891;SDS011;10108;50.142;8.724;2023-04-06T05:55:26;17.90;;;10.18;;
19891;SDS011;10108;50.142;8.724;2023-04-06T05:58:05;17.23;;;10.88;;
19891;SDS011;10108;50.142;8.724;2023-04-06T06:00:31;17.27;;;10.85;;
19891;SDS011;10108;50.142;8.724;2023-04-06T06:03:03;17.05;;;11.00;;
19891;SDS011;10108;50.142;8.724;2023-04-06T06:05:31;21.15;;;11.18;;
19891;SDS011;10108;50.142;8.724;2023-04-06T06:08:04;17.88;;;10.85;;
19891;SDS011;10108;50.142;8.724;2023-04-06T06:10:55;16.15;;;10.27;;
19891;SDS011;10108;50.142;8.724;2023-04-06T06:13:47;16.90;;;11.32;;
19891;SDS011;10108;50.142;8.724;2023-04-06T06:16:39;16.45;;;10.65;;
19891;SDS011;10108;50.142;8.724;2023-04-06T06:19:31;16.40;;;11.05;;
19891;SDS011;10108;50.142;8.724;2023-04-06T06:22:22;15.77;;;11.10;;
19891;SDS011;10108;50.142;8.724;2023-04-06T06:25:17;16.15;;;10.45;;
19891;SDS011;10108;50.142;8.724;2023-04-06T06:28:08;18.50;;;11.57;;
19891;SDS011;10108;50.142;8.724;2023-04-06T06:30:35;19.77;;;12.45;;
19891;SDS011;10108;50.142;8.724;2023-04-06T06:33:07;17.10;;;12.00;;
19891;SDS011;10108;50.142;8.724;2023-04-06T06:35:39;19.98;;;12.75;;
19891;SDS011;10108;50.142;8.724;2023-04-06T06:38:30;21.77;;;12.13;;
19891;SDS011;10108;50.142;8.724;2023-04-06T06:41:21;18.30;;;11.57;;
19891;SDS011;10108;50.142;8.724;2023-04-06T06:43:48;22.95;;;11.90;;
19891;SDS011;10108;50.142;8.724;2023-04-06T06:46:14;21.80;;;12.07;;
19891;SDS011;10108;50.142;8.724;2023-04-06T06:48:41;19.05;;;11.80;;
19891;SDS011;10108;50.142;8.724;2023-04-06T06:51:09;17.50;;;11.70;;
19891;SDS011;10108;50.142;8.724;2023-04-06T06:54:02;19.23;;;12.48;;
19891;SDS011;10108;50.142;8.724;2023-04-06T06:56:28;22.17;;;12.63;;
19891;SDS011;10108;50.142;8.724;2023-04-06T06:59:03;22.58;;;12.98;;
19891;SDS011;10108;50.142;8.724;2023-04-06T07:01:55;21.65;;;12.20;;
19891;SDS011;10108;50.142;8.724;2023-04-06T07:04:21;20.80;;;12.52;;
19891;SDS011;10108;50.142;8.724;2023-04-06T07:07:12;23.13;;;12.95;;
19891;SDS011;10108;50.142;8.724;2023-04-06T07:10:05;22.45;;;12.15;;
19891;SDS011;10108;50.142;8.724;2023-04-06T07:12:32;22.05;;;12.52;;
19891;SDS011;10108;50.142;8.724;2023-04-06T07:14:59;22.85;;;13.45;;
19891;SDS011;10108;50.142;8.724;2023-04-06T07:17:25;21.33;;;12.75;;
19891;SDS011;10108;50.142;8.724;2023-04-06T07:19:51;26.45;;;13.07;;
19891;SDS011;10108;50.142;8.724;2023-04-06T07:22:17;18.00;;;11.95;;
19891;SDS011;10108;50.142;8.724;2023-04-06T07:24:44;25.70;;;13.07;;
19891;SDS011;10108;50.142;8.724;2023-04-06T07:27:10;23.80;;;13.25;;
19891;SDS011;10108;50.142;8.724;2023-04-06T07:29:36;23.55;;;13.48;;
19891;SDS011;10108;50.142;8.724;2023-04-06T07:32:02;23.10;;;13.20;;
19891;SDS011;10108;50.142;8.724;2023-04-06T07:34:31;22.42;;;13.25;;
19891;SDS011;10108;50.142;8.724;2023-04-06T07:36:58;23.95;;;12.77;;
19891;SDS011;10108;50.142;8.724;2023-04-06T07:39:27;22.80;;;13.25;;
19891;SDS011;10108;50.142;8.724;2023-04-06T07:41:55;23.08;;;13.57;;
19891;SDS011;10108;50.142;8.724;2023-04-06T07:44:22;25.70;;;14.10;;
19891;SDS011;10108;50.142;8.724;2023-04-06T07:46:48;22.92;;;13.50;;
19891;SDS011;10108;50.142;8.724;2023-04-06T07:49:15;22.65;;;13.45;;
19891;SDS011;10108;50.142;8.724;2023-04-06T07:51:43;21.75;;;13.02;;
19891;SDS011;10108;50.142;8.724;2023-04-06T07:54:09;23.80;;;13.45;;
19891;SDS011;10108;50.142;8.724;2023-04-06T07:56:36;23.10;;;12.95;;
19891;SDS011;10108;50.142;8.724;2023-04-06T07:59:02;21.98;;;13.27;;
19891;SDS011;10108;50.142;8.724;2023-04-06T08:01:28;20.85;;;12.48;;
19891;SDS011;10108;50.142;8.724;2023-04-06T08:03:56;21.02;;;12.38;;
19891;SDS011;10108;50.142;8.724;2023-04-06T08:06:23;23.75;;;13.30;;
19891;SDS011;10108;50.142;8.724;2023-04-06T08:08:49;23.10;;;13.38;;
19891;SDS011;10108;50.142;8.724;2023-04-06T08:11:15;20.25;;;13.05;;
19891;SDS011;10108;50.142;8.724;2023-04-06T08:13:42;20.85;;;12.60;;
19891;SDS011;10108;50.142;8.724;2023-04-06T08:16:08;18.75;;;12.43;;
19891;SDS011;10108;50.142;8.724;2023-04-06T08:18:35;18.40;;;12.50;;
19891;SDS011;10108;50.142;8.724;2023-04-06T08:21:01;21.40;;;12.35;;
19891;SDS011;10108;50.142;8.724;2023-04-06T08:23:28;22.02;;;12.63;;
19891;SDS011;10108;50.142;8.724;2023-04-06T08:25:54;20.25;;;12.38;;
19891;SDS011;10108;50.142;8.724;2023-04-06T08:28:21;20.98;;;13.02;;
19891;SDS011;10108;50.142;8.724;2023-04-06T08:30:47;21.20;;;12.05;;
19891;SDS011;10108;50.142;8.724;2023-04-06T08:33:14;19.90;;;12.63;;
19891;SDS011;10108;50.142;8.724;2023-04-06T08:35:41;20.48;;;13.00;;
19891;SDS011;10108;50.142;8.724;2023-04-06T08:38:07;21.17;;;12.85;;
19891;SDS011;10108;50.142;8.724;2023-04-06T08:40:37;18.48;;;12.27;;
19891;SDS011;10108;50.142;8.724;2023-04-06T08:43:09;18.80;;;12.48;;
19891;SDS011;10108;50.142;8.724;2023-04-06T08:45:41;22.13;;;12.48;;
19891;SDS011;10108;50.142;8.724;2023-04-06T08:48:08;21.75;;;13.18;;
19891;SDS011;10108;50.142;8.724;2023-04-06T08:50:35;19.50;;;12.43;;
19891;SDS011;10108;50.142;8.724;2023-04-06T08:53:03;24.50;;;12.65;;
19891;SDS011;10108;50.142;8.724;2023-04-06T08:55:31;23.23;;;12.93;;
19891;SDS011;10108;50.142;8.724;2023-04-06T08:57:58;20.08;;;12.48;;
19891;SDS011;10108;50.142;8.724;2023-04-06T09:00:25;18.40;;;12.75;;
19891;SDS011;10108;50.142;8.724;2023-04-06T09:02:53;16.67;;;11.48;;
19891;SDS011;10108;50.142;8.724;2023-04-06T09:05:21;19.75;;;11.73;;
19891;SDS011;10108;50.142;8.724;2023-04-06T09:07:49;19.33;;;12.43;;
19891;SDS011;10108;50.142;8.724;2023-04-06T09:10:16;18.77;;;11.75;;
19891;SDS011;10108;50.142;8.724;2023-04-06T09:12:42;19.55;;;11.73;;
19891;SDS011;10108;50.142;8.724;2023-04-06T09:15:19;17.80;;;12.20;;
19891;SDS011;10108;50.142;8.724;2023-04-06T09:17:46;18.52;;;12.07;;
19891;SDS011;10108;50.142;8.724;2023-04-06T09:20:13;21.77;;;12.30;;
19891;SDS011;10108;50.142;8.724;2023-04-06T09:22:39;17.25;;;12.27;;
19891;SDS011;10108;50.142;8.724;2023-04-06T09:25:17;18.92;;;12.38;;
19891;SDS011;10108;50.142;8.724;2023-04-06T09:27:46;22.13;;;11.57;;
19891;SDS011;10108;50.142;8.724;2023-04-06T09:30:47;19.00;;;11.50;;
19891;SDS011;10108;50.142;8.724;2023-04-06T09:33:42;18.23;;;11.57;;
19891;SDS011;10108;50.142;8.724;2023-04-06T09:36:36;18.92;;;11.13;;
19891;SDS011;10108;50.142;8.724;2023-04-06T09:39:07;19.77;;;12.00;;
19891;SDS011;10108;50.142;8.724;2023-04-06T09:41:34;17.65;;;11.40;;
19891;SDS011;10108;50.142;8.724;2023-04-06T09:46:34;23.65;;;11.40;;
19891;SDS011;10108;50.142;8.724;2023-04-06T09:49:05;19.83;;;11.07;;
19891;SDS011;10108;50.142;8.724;2023-04-06T09:51:45;16.40;;;9.90;;
19891;SDS011;10108;50.142;8.724;2023-04-06T09:54:15;21.60;;;11.48;;
19891;SDS011;10108;50.142;8.724;2023-04-06T09:56:51;21.75;;;11.20;;
19891;SDS011;10108;50.142;8.724;2023-04-06T09:59:36;16.90;;;10.68;;
19891;SDS011;10108;50.142;8.724;2023-04-06T10:02:23;17.05;;;10.48;;
19891;SDS011;10108;50.142;8.724;2023-04-06T10:05:01;20.10;;;11.05;;
19891;SDS011;10108;50.142;8.724;2023-04-06T10:07:34;20.48;;;11.45;;
19891;SDS011;10108;50.142;8.724;2023-04-06T10:10:04;16.35;;;10.57;;
19891;SDS011;10108;50.142;8.724;2023-04-06T10:12:31;19.20;;;11.15;;
19891;SDS011;10108;50.142;8.724;2023-04-06T10:14:57;21.70;;;11.70;;
19891;SDS011;10108;50.142;8.724;2023-04-06T10:17:24;20.40;;;11.32;;
19891;SDS011;10108;50.142;8.724;2023-04-06T10:26:04;20.25;;;10.63;;
19891;SDS011;10108;50.142;8.724;2023-04-06T10:28:31;21.65;;;11.77;;
19891;SDS011;10108;50.142;8.724;2023-04-06T10:31:02;21.75;;;11.18;;
19891;SDS011;10108;50.142;8.724;2023-04-06T10:33:31;20.27;;;11.57;;
19891;SDS011;10108;50.142;8.724;2023-04-06T10:35:57;19.45;;;10.93;;
19891;SDS011;10108;50.142;8.724;2023-04-06T10:38:34;20.48;;;11.52;;
19891;SDS011;10108;50.142;8.724;2023-04-06T10:41:06;17.20;;;10.70;;
19891;SDS011;10108;50.142;8.724;2023-04-06T10:43:37;19.50;;;10.73;;
19891;SDS011;10108;50.142;8.724;2023-04-06T10:46:05;17.63;;;10.63;;
19891;SDS011;10108;50.142;8.724;2023-04-06T10:48:36;17.13;;;10.38;;
19891;SDS011;10108;50.142;8.724;2023-04-06T10:51:17;16.52;;;9.75;;
19891;SDS011;10108;50.142;8.724;2023-04-06T10:53:45;18.58;;;10.98;;
19891;SDS011;10108;50.142;8.724;2023-04-06T10:56:17;20.02;;;11.45;;
19891;SDS011;10108;50.142;8.724;2023-04-06T10:59:11;17.38;;;9.65;;
19891;SDS011;10108;50.142;8.724;2023-04-06T11:02:03;19.02;;;10.40;;
19891;SDS011;10108;50.142;8.724;2023-04-06T11:04:57;19.25;;;10.85;;
19891;SDS011;10108;50.142;8.724;2023-04-06T11:07:55;18.52;;;10.45;;
19891;SDS011;10108;50.142;8.724;2023-04-06T11:10:46;19.15;;;10.70;;
19891;SDS011;10108;50.142;8.724;2023-04-06T11:13:43;20.42;;;10.95;;
19891;SDS011;10108;50.142;8.724;2023-04-06T11:16:56;19.70;;;10.68;;
19891;SDS011;10108;50.142;8.724;2023-04-06T11:19:49;15.82;;;9.43;;
19891;SDS011;10108;50.142;8.724;2023-04-06T11:22:53;17.85;;;10.88;;
19891;SDS011;10108;50.142;8.724;2023-04-06T11:25:51;19.75;;;10.63;;
19891;SDS011;10108;50.142;8.724;2023-04-06T11:28:43;17.65;;;10.25;;
19891;SDS011;10108;50.142;8.724;2023-04-06T11:31:39;22.92;;;11.63;;
19891;SDS011;10108;50.142;8.724;2023-04-06T11:34:38;18.80;;;11.02;;
19891;SDS011;10108;50.142;8.724;2023-04-06T11:37:57;21.60;;;12.20;;
19891;SDS011;10108;50.142;8.724;2023-04-06T11:40:55;17.52;;;10.48;;
19891;SDS011;10108;50.142;8.724;2023-04-06T11:43:47;19.42;;;10.93;;
19891;SDS011;10108;50.142;8.724;2023-04-06T11:46:38;19.45;;;10.50;;
19891;SDS011;10108;50.142;8.724;2023-04-06T11:49:30;20.00;;;10.93;;
19891;SDS011;10108;50.142;8.724;2023-04-06T11:52:32;18.30;;;10.82;;
19891;SDS011;10108;50.142;8.724;2023-04-06T11:55:10;17.40;;;10.40;;
19891;SDS011;10108;50.142;8.724;2023-04-06T11:57:38;19.80;;;11.30;;
19891;SDS011;10108;50.142;8.724;2023-04-06T12:00:30;19.67;;;10.80;;
19891;SDS011;10108;50.142;8.724;2023-04-06T12:03:24;19.38;;;11.02;;
19891;SDS011;10108;50.142;8.724;2023-04-06T12:06:16;16.80;;;10.75;;
19891;SDS011;10108;50.142;8.724;2023-04-06T12:09:11;17.35;;;10.38;;
19891;SDS011;10108;50.142;8.724;2023-04-06T12:12:02;16.85;;;10.63;;
19891;SDS011;10108;50.142;8.724;2023-04-06T12:15:19;19.10;;;10.70;;
19891;SDS011;10108;50.142;8.724;2023-04-06T12:17:45;19.23;;;11.05;;
19891;SDS011;10108;50.142;8.724;2023-04-06T12:20:11;18.08;;;10.65;;
19891;SDS011;10108;50.142;8.724;2023-04-06T12:23:07;17.83;;;10.65;;
19891;SDS011;10108;50.142;8.724;2023-04-06T12:26:01;17.63;;;10.73;;
19891;SDS011;10108;50.142;8.724;2023-04-06T12:28:53;21.48;;;11.10;;
19891;SDS011;10108;50.142;8.724;2023-04-06T12:31:47;17.85;;;10.57;;
19891;SDS011;10108;50.142;8.724;2023-04-06T12:34:42;19.60;;;10.93;;
19891;SDS011;10108;50.142;8.724;2023-04-06T12:37:33;18.33;;;10.60;;
19891;SDS011;10108;50.142;8.724;2023-04-06T12:40:27;14.45;;;8.73;;
19891;SDS011;10108;50.142;8.724;2023-04-06T12:43:18;15.32;;;9.52;;
19891;SDS011;10108;50.142;8.724;2023-04-06T12:46:09;18.92;;;10.95;;
19891;SDS011;10108;50.142;8.724;2023-04-06T12:49:10;16.38;;;9.85;;
19891;SDS011;10108;50.142;8.724;2023-04-06T12:52:04;15.23;;;10.20;;
19891;SDS011;10108;50.142;8.724;2023-04-06T12:54:55;14.50;;;9.60;;
19891;SDS011;10108;50.142;8.724;2023-04-06T12:57:47;17.73;;;11.38;;
19891;SDS011;10108;50.142;8.724;2023-04-06T13:00:44;18.67;;;11.48;;
19891;SDS011;10108;50.142;8.724;2023-04-06T13:03:35;15.82;;;10.20;;
19891;SDS011;10108;50.142;8.724;2023-04-06T13:06:29;15.75;;;10.10;;
19891;SDS011;10108;50.142;8.724;2023-04-06T13:09:23;12.88;;;8.43;;
19891;SDS011;10108;50.142;8.724;2023-04-06T13:12:14;15.15;;;10.13;;
19891;SDS011;10108;50.142;8.724;2023-04-06T13:15:08;19.40;;;11.07;;
19891;SDS011;10108;50.142;8.724;2023-04-06T13:18:00;15.98;;;9.00;;
19891;SDS011;10108;50.142;8.724;2023-04-06T13:20:55;12.77;;;8.68;;
19891;SDS011;10108;50.142;8.724;2023-04-06T13:23:47;15.82;;;9.35;;
19891;SDS011;10108;50.142;8.724;2023-04-06T13:26:42;14.45;;;9.15;;
19891;SDS011;10108;50.142;8.724;2023-04-06T13:29:33;14.43;;;8.63;;
19891;SDS011;10108;50.142;8.724;2023-04-06T13:32:25;13.48;;;8.68;;
19891;SDS011;10108;50.142;8.724;2023-04-06T13:35:22;18.27;;;8.77;;
19891;SDS011;10108;50.142;8.724;2023-04-06T13:38:13;18.60;;;10.30;;
19891;SDS011;10108;50.142;8.724;2023-04-06T13:41:08;17.08;;;9.23;;
19891;SDS011;10108;50.142;8.724;2023-04-06T13:44:08;14.90;;;9.18;;
19891;SDS011;10108;50.142;8.724;2023-04-06T13:46:59;16.80;;;9.63;;
19891;SDS011;10108;50.142;8.724;2023-04-06T13:49:53;14.73;;;9.43;;
19891;SDS011;10108;50.142;8.724;2023-04-06T13:52:57;16.17;;;9.00;;
19891;SDS011;10108;50.142;8.724;2023-04-06T13:55:54;16.65;;;9.60;;
19891;SDS011;10108;50.142;8.724;2023-04-06T13:58:46;15.13;;;9.63;;
19891;SDS011;10108;50.142;8.724;2023-04-06T14:01:42;14.00;;;9.45;;
19891;SDS011;10108;50.142;8.724;2023-04-06T14:04:34;17.20;;;10.70;;
19891;SDS011;10108;50.142;8.724;2023-04-06T14:07:26;16.40;;;10.25;;
19891;SDS011;10108;50.142;8.724;2023-04-06T14:10:17;17.15;;;10.20;;
19891;SDS011;10108;50.142;8.724;2023-04-06T14:13:08;18.42;;;11.75;;
19891;SDS011;10108;50.142;8.724;2023-04-06T14:15:59;14.68;;;9.20;;
19891;SDS011;10108;50.142;8.724;2023-04-06T14:18:26;13.43;;;9.45;;
19891;SDS011;10108;50.142;8.724;2023-04-06T14:21:21;14.40;;;9.45;;
19891;SDS011;10108;50.142;8.724;2023-04-06T14:24:15;13.45;;;9.23;;
19891;SDS011;10108;50.142;8.724;2023-04-06T14:27:06;12.68;;;8.98;;
19891;SDS011;10108;50.142;8.724;2023-04-06T14:29:32;16.20;;;9.80;;
19891;SDS011;10108;50.142;8.724;2023-04-06T14:32:01;16.38;;;9.00;;
19891;SDS011;10108;50.142;8.724;2023-04-06T14:34:27;15.63;;;10.32;;
19891;SDS011;10108;50.142;8.724;2023-04-06T14:37:19;16.55;;;9.82;;
19891;SDS011;10108;50.142;8.724;2023-04-06T14:40:12;11.75;;;8.27;;
19891;SDS011;10108;50.142;8.724;2023-04-06T14:43:03;14.30;;;9.85;;
19891;SDS011;10108;50.142;8.724;2023-04-06T14:46:00;13.25;;;8.55;;
19891;SDS011;10108;50.142;8.724;2023-04-06T14:48:55;11.38;;;8.27;;
19891;SDS011;10108;50.142;8.724;2023-04-06T14:51:48;15.00;;;9.88;;
19891;SDS011;10108;50.142;8.724;2023-04-06T14:54:39;14.95;;;9.48;;
19891;SDS011;10108;50.142;8.724;2023-04-06T14:57:33;11.95;;;8.40;;
19891;SDS011;10108;50.142;8.724;2023-04-06T15:00:27;13.93;;;9.50;;
19891;SDS011;10108;50.142;8.724;2023-04-06T15:03:19;16.40;;;9.50;;
19891;SDS011;10108;50.142;8.724;2023-04-06T15:06:12;13.13;;;9.00;;
19891;SDS011;10108;50.142;8.724;2023-04-06T15:09:09;15.23;;;9.70;;
19891;SDS011;10108;50.142;8.724;2023-04-06T15:11:44;13.55;;;9.52;;
19891;SDS011;10108;50.142;8.724;2023-04-06T15:14:14;11.98;;;9.05;;
19891;SDS011;10108;50.142;8.724;2023-04-06T15:17:06;14.02;;;9.40;;
19891;SDS011;10108;50.142;8.724;2023-04-06T15:19:32;14.60;;;9.38;;
19891;SDS011;10108;50.142;8.724;2023-04-06T15:21:58;14.10;;;9.57;;
19891;SDS011;10108;50.142;8.724;2023-04-06T15:24:24;16.17;;;10.27;;
19891;SDS011;10108;50.142;8.724;2023-04-06T15:26:50;14.55;;;9.23;;